sensor_id;sensor_type;location;lat;lon;timestamp;temperature;humidity
3846;DHT22;1938;50.812;7.738;2023-05-07T00:01:26;13.50;99.90
3846;DHT22;1938;50.812;7.738;2023-05-07T00:03:52;13.60;99.90
3846;DHT22;1938;50.812;7.738;2023-05-07T00:06:17;13.50;1.00
3846;DHT22;1938;50.812;7.738;2023-05-07T00:08:43;13.50;1.00
3846;DHT22;1938;50.812;7.738;2023-05-07T00:11:08;13.50;1.00
3846;DHT22;1938;50.812;7.738;2023-05-07T00:13:34;13.50;1.00
3846;DHT22;1938;50.812;7.738;2023-05-07T00:16:02;13.60;1.00
3846;DHT22;1938;50.812;7.738;2023-05-07T00:18:27;13.60;1.00
3846;DHT22;1938;50.812;7.738;2023-05-07T00:20:53;13.60;1.00
3846;DHT22;1938;50.812;7.738;2023-05-07T00:23:18;13.60;1.00
3846;DHT22;1938;50.812;7.738;2023-05-07T00:25:44;13.60;1.00
3846;DHT22;1938;50.812;7.738;2023-05-07T00:28:09;13.60;1.00
3846;DHT22;1938;50.812;7.738;2023-05-07T00:30:35;13.60;1.00
3846;DHT22;1938;50.812;7.738;2023-05-07T00:33:00;13.50;1.00
3846;DHT22;1938;50.812;7.738;2023-05-07T00:35:27;13.50;1.00
3846;DHT22;1938;50.812;7.738;2023-05-07T00:37:53;13.50;1.00
3846;DHT22;1938;50.812;7.738;2023-05-07T00:40:19;13.50;1.00
3846;DHT22;1938;50.812;7.738;2023-05-07T00:42:44;13.50;1.00
3846;DHT22;1938;50.812;7.738;2023-05-07T00:45:15;13.50;1.00
3846;DHT22;1938;50.812;7.738;2023-05-07T00:47:42;13.60;1.00
3846;DHT22;1938;50.812;7.738;2023-05-07T00:50:09;13.60;1.00
3846;DHT22;1938;50.812;7.738;2023-05-07T00:52:36;13.60;1.00
3846;DHT22;1938;50.812;7.738;2023-05-07T00:55:05;13.60;1.00
3846;DHT22;1938;50.812;7.738;2023-05-07T00:57:36;13.60;99.90
3846;DHT22;1938;50.812;7.738;2023-05-07T01:00:04;13.60;99.90
3846;DHT22;1938;50.812;7.738;2023-05-07T01:02:30;13.60;99.90
3846;DHT22;1938;50.812;7.738;2023-05-07T01:04:56;13.60;99.90
3846;DHT22;1938;50.812;7.738;2023-05-07T01:07:22;13.60;99.90
3846;DHT22;1938;50.812;7.738;2023-05-07T01:09:48;13.60;99.90
3846;DHT22;1938;50.812;7.738;2023-05-07T01:12:14;13.70;99.90
3846;DHT22;1938;50.812;7.738;2023-05-07T01:14:41;13.70;99.90
3846;DHT22;1938;50.812;7.738;2023-05-07T01:17:07;13.70;99.90
3846;DHT22;1938;50.812;7.738;2023-05-07T01:19:33;13.70;99.90
3846;DHT22;1938;50.812;7.738;2023-05-07T01:22:08;13.60;99.90
3846;DHT22;1938;50.812;7.738;2023-05-07T01:24:35;13.70;99.90
3846;DHT22;1938;50.812;7.738;2023-05-07T01:27:01;13.70;99.90
3846;DHT22;1938;50.812;7.738;2023-05-07T01:29:27;13.80;99.90
3846;DHT22;1938;50.812;7.738;2023-05-07T01:31:54;13.80;99.90
3846;DHT22;1938;50.812;7.738;2023-05-07T01:34:22;13.80;80.70
3846;DHT22;1938;50.812;7.738;2023-05-07T01:36:51;13.80;20.10
3846;DHT22;1938;50.812;7.738;2023-05-07T01:39:17;13.80;1.00
3846;DHT22;1938;50.812;7.738;2023-05-07T01:41:43;13.80;1.00
3846;DHT22;1938;50.812;7.738;2023-05-07T01:44:12;13.80;28.10
3846;DHT22;1938;50.812;7.738;2023-05-07T01:46:38;13.70;99.90
3846;DHT22;1938;50.812;7.738;2023-05-07T01:49:04;13.60;99.90
3846;DHT22;1938;50.812;7.738;2023-05-07T01:51:30;13.60;99.90
3846;DHT22;1938;50.812;7.738;2023-05-07T01:53:56;13.60;99.90
3846;DHT22;1938;50.812;7.738;2023-05-07T01:56:23;13.50;99.90
3846;DHT22;1938;50.812;7.738;2023-05-07T01:58:49;13.60;99.90
3846;DHT22;1938;50.812;7.738;2023-05-07T02:01:16;13.60;99.90
3846;DHT22;1938;50.812;7.738;2023-05-07T02:03:42;13.60;99.90
3846;DHT22;1938;50.812;7.738;2023-05-07T02:06:07;13.60;99.90
3846;DHT22;1938;50.812;7.738;2023-05-07T02:08:34;13.60;99.90
3846;DHT22;1938;50.812;7.738;2023-05-07T02:11:00;13.70;99.90
3846;DHT22;1938;50.812;7.738;2023-05-07T02:13:28;13.70;99.90
3846;DHT22;1938;50.812;7.738;2023-05-07T02:15:53;13.70;99.90
3846;DHT22;1938;50.812;7.738;2023-05-07T02:18:19;13.70;99.90
3846;DHT22;1938;50.812;7.738;2023-05-07T02:20:45;13.80;26.00
3846;DHT22;1938;50.812;7.738;2023-05-07T02:23:10;13.80;1.00
3846;DHT22;1938;50.812;7.738;2023-05-07T02:25:36;13.80;1.00
3846;DHT22;1938;50.812;7.738;2023-05-07T02:28:01;13.80;99.90
3846;DHT22;1938;50.812;7.738;2023-05-07T02:30:27;13.80;99.90
3846;DHT22;1938;50.812;7.738;2023-05-07T02:32:53;13.80;99.90
3846;DHT22;1938;50.812;7.738;2023-05-07T02:35:19;13.80;99.90
3846;DHT22;1938;50.812;7.738;2023-05-07T02:37:44;13.70;43.30
3846;DHT22;1938;50.812;7.738;2023-05-07T02:40:10;13.70;99.50
3846;DHT22;1938;50.812;7.738;2023-05-07T02:42:36;13.60;99.90
3846;DHT22;1938;50.812;7.738;2023-05-07T02:45:02;13.60;99.90
3846;DHT22;1938;50.812;7.738;2023-05-07T02:47:27;13.60;99.90
3846;DHT22;1938;50.812;7.738;2023-05-07T02:49:54;13.50;99.90
3846;DHT22;1938;50.812;7.738;2023-05-07T02:52:20;13.50;99.90
3846;DHT22;1938;50.812;7.738;2023-05-07T02:54:47;13.50;99.90
3846;DHT22;1938;50.812;7.738;2023-05-07T02:57:13;13.40;99.90
3846;DHT22;1938;50.812;7.738;2023-05-07T02:59:38;13.40;1.00
3846;DHT22;1938;50.812;7.738;2023-05-07T03:02:04;13.40;1.00
3846;DHT22;1938;50.812;7.738;2023-05-07T03:04:29;13.40;1.00
3846;DHT22;1938;50.812;7.738;2023-05-07T03:06:55;13.40;1.00
3846;DHT22;1938;50.812;7.738;2023-05-07T03:09:20;13.40;1.00
3846;DHT22;1938;50.812;7.738;2023-05-07T03:11:46;13.40;1.00
3846;DHT22;1938;50.812;7.738;2023-05-07T03:14:12;13.40;1.00
3846;DHT22;1938;50.812;7.738;2023-05-07T03:16:38;13.30;1.00
3846;DHT22;1938;50.812;7.738;2023-05-07T03:19:03;13.40;1.00
3846;DHT22;1938;50.812;7.738;2023-05-07T03:21:29;13.40;4.10
3846;DHT22;1938;50.812;7.738;2023-05-07T03:23:55;13.30;1.00
3846;DHT22;1938;50.812;7.738;2023-05-07T03:26:21;13.30;1.00
3846;DHT22;1938;50.812;7.738;2023-05-07T03:28:47;13.30;15.20
3846;DHT22;1938;50.812;7.738;2023-05-07T03:31:12;13.30;2.60
3846;DHT22;1938;50.812;7.738;2023-05-07T03:36:17;13.20;99.90
3846;DHT22;1938;50.812;7.738;2023-05-07T03:38:43;13.20;99.90
3846;DHT22;1938;50.812;7.738;2023-05-07T03:41:08;13.20;88.20
3846;DHT22;1938;50.812;7.738;2023-05-07T03:43:34;13.20;93.30
3846;DHT22;1938;50.812;7.738;2023-05-07T03:45:59;13.20;99.90
3846;DHT22;1938;50.812;7.738;2023-05-07T03:48:25;13.20;99.90
3846;DHT22;1938;50.812;7.738;2023-05-07T03:50:51;13.20;99.90
3846;DHT22;1938;50.812;7.738;2023-05-07T03:53:16;13.20;99.90
3846;DHT22;1938;50.812;7.738;2023-05-07T03:55:43;13.20;99.90
3846;DHT22;1938;50.812;7.738;2023-05-07T03:58:08;13.20;99.90
3846;DHT22;1938;50.812;7.738;2023-05-07T04:00:34;13.20;99.90
3846;DHT22;1938;50.812;7.738;2023-05-07T04:03:03;13.20;99.90
3846;DHT22;1938;50.812;7.738;2023-05-07T04:05:30;13.30;99.90
3846;DHT22;1938;50.812;7.738;2023-05-07T04:07:57;13.30;1.70
3846;DHT22;1938;50.812;7.738;2023-05-07T04:10:23;13.30;49.00
3846;DHT22;1938;50.812;7.738;2023-05-07T04:12:48;13.30;27.30
3846;DHT22;1938;50.812;7.738;2023-05-07T04:15:14;13.30;9.70
3846;DHT22;1938;50.812;7.738;2023-05-07T04:17:39;13.30;28.00
3846;DHT22;1938;50.812;7.738;2023-05-07T04:20:09;13.40;1.00
3846;DHT22;1938;50.812;7.738;2023-05-07T04:22:34;13.40;1.00
3846;DHT22;1938;50.812;7.738;2023-05-07T04:25:00;13.40;1.00
3846;DHT22;1938;50.812;7.738;2023-05-07T04:27:25;13.40;1.00
3846;DHT22;1938;50.812;7.738;2023-05-07T04:29:51;13.40;1.00
3846;DHT22;1938;50.812;7.738;2023-05-07T04:32:21;13.50;99.90
3846;DHT22;1938;50.812;7.738;2023-05-07T04:34:46;13.40;99.90
3846;DHT22;1938;50.812;7.738;2023-05-07T04:37:12;13.40;1.00
3846;DHT22;1938;50.812;7.738;2023-05-07T04:39:37;13.50;99.90
3846;DHT22;1938;50.812;7.738;2023-05-07T04:42:03;13.40;1.00
3846;DHT22;1938;50.812;7.738;2023-05-07T04:44:28;13.30;1.00
3846;DHT22;1938;50.812;7.738;2023-05-07T04:46:56;13.50;1.00
3846;DHT22;1938;50.812;7.738;2023-05-07T04:49:22;13.50;1.00
3846;DHT22;1938;50.812;7.738;2023-05-07T04:51:47;13.40;1.00
3846;DHT22;1938;50.812;7.738;2023-05-07T04:54:13;13.50;1.00
3846;DHT22;1938;50.812;7.738;2023-05-07T04:56:40;13.50;1.00
3846;DHT22;1938;50.812;7.738;2023-05-07T04:59:05;13.50;1.00
3846;DHT22;1938;50.812;7.738;2023-05-07T05:01:31;13.50;1.00
3846;DHT22;1938;50.812;7.738;2023-05-07T05:03:57;13.50;1.00
3846;DHT22;1938;50.812;7.738;2023-05-07T05:06:22;13.60;1.00
3846;DHT22;1938;50.812;7.738;2023-05-07T05:08:48;13.70;99.90
3846;DHT22;1938;50.812;7.738;2023-05-07T05:11:14;13.70;99.90
3846;DHT22;1938;50.812;7.738;2023-05-07T05:13:40;13.80;25.30
3846;DHT22;1938;50.812;7.738;2023-05-07T05:16:05;13.70;95.30
3846;DHT22;1938;50.812;7.738;2023-05-07T05:18:31;13.70;99.90
3846;DHT22;1938;50.812;7.738;2023-05-07T05:20:56;13.70;99.90
3846;DHT22;1938;50.812;7.738;2023-05-07T05:23:22;13.70;99.90
3846;DHT22;1938;50.812;7.738;2023-05-07T05:25:48;13.70;1.00
3846;DHT22;1938;50.812;7.738;2023-05-07T05:28:13;13.80;99.90
3846;DHT22;1938;50.812;7.738;2023-05-07T05:30:39;13.90;99.90
3846;DHT22;1938;50.812;7.738;2023-05-07T05:33:04;14.00;99.90
3846;DHT22;1938;50.812;7.738;2023-05-07T05:35:30;14.00;32.50
3846;DHT22;1938;50.812;7.738;2023-05-07T05:37:56;14.10;26.60
3846;DHT22;1938;50.812;7.738;2023-05-07T05:40:22;14.20;1.00
3846;DHT22;1938;50.812;7.738;2023-05-07T05:42:48;14.20;99.90
3846;DHT22;1938;50.812;7.738;2023-05-07T05:45:14;14.40;99.90
3846;DHT22;1938;50.812;7.738;2023-05-07T05:47:39;14.50;3.40
3846;DHT22;1938;50.812;7.738;2023-05-07T05:50:06;14.70;1.00
3846;DHT22;1938;50.812;7.738;2023-05-07T05:52:32;14.70;1.00
3846;DHT22;1938;50.812;7.738;2023-05-07T05:54:57;14.70;99.90
3846;DHT22;1938;50.812;7.738;2023-05-07T05:57:23;14.90;99.90
3846;DHT22;1938;50.812;7.738;2023-05-07T05:59:48;14.90;99.90
3846;DHT22;1938;50.812;7.738;2023-05-07T06:02:14;14.90;99.90
3846;DHT22;1938;50.812;7.738;2023-05-07T06:04:40;15.00;99.90
3846;DHT22;1938;50.812;7.738;2023-05-07T06:07:06;15.10;1.00
3846;DHT22;1938;50.812;7.738;2023-05-07T06:09:32;15.20;1.00
3846;DHT22;1938;50.812;7.738;2023-05-07T06:11:57;15.50;1.00
3846;DHT22;1938;50.812;7.738;2023-05-07T06:14:23;15.50;99.90
3846;DHT22;1938;50.812;7.738;2023-05-07T06:16:49;15.50;1.00
3846;DHT22;1938;50.812;7.738;2023-05-07T06:19:14;15.60;99.90
3846;DHT22;1938;50.812;7.738;2023-05-07T06:21:40;16.00;75.10
3846;DHT22;1938;50.812;7.738;2023-05-07T06:24:06;16.40;1.00
3846;DHT22;1938;50.812;7.738;2023-05-07T06:26:31;16.90;99.90
3846;DHT22;1938;50.812;7.738;2023-05-07T06:28:57;17.80;99.90
3846;DHT22;1938;50.812;7.738;2023-05-07T06:31:22;18.90;99.90
3846;DHT22;1938;50.812;7.738;2023-05-07T06:33:48;19.70;99.90
3846;DHT22;1938;50.812;7.738;2023-05-07T06:36:14;20.40;99.90
3846;DHT22;1938;50.812;7.738;2023-05-07T06:38:40;20.70;99.90
3846;DHT22;1938;50.812;7.738;2023-05-07T06:41:06;20.50;54.70
3846;DHT22;1938;50.812;7.738;2023-05-07T06:43:32;20.10;74.60
3846;DHT22;1938;50.812;7.738;2023-05-07T06:45:57;20.00;76.80
3846;DHT22;1938;50.812;7.738;2023-05-07T06:48:23;19.80;73.90
3846;DHT22;1938;50.812;7.738;2023-05-07T06:50:48;19.50;93.00
3846;DHT22;1938;50.812;7.738;2023-05-07T06:53:15;19.50;99.90
3846;DHT22;1938;50.812;7.738;2023-05-07T06:55:40;19.30;99.90
3846;DHT22;1938;50.812;7.738;2023-05-07T06:58:07;19.20;99.90
3846;DHT22;1938;50.812;7.738;2023-05-07T07:00:33;19.40;99.90
3846;DHT22;1938;50.812;7.738;2023-05-07T07:02:59;19.40;99.90
3846;DHT22;1938;50.812;7.738;2023-05-07T07:05:25;19.20;99.90
3846;DHT22;1938;50.812;7.738;2023-05-07T07:07:51;18.90;99.90
3846;DHT22;1938;50.812;7.738;2023-05-07T07:10:20;18.80;99.90
3846;DHT22;1938;50.812;7.738;2023-05-07T07:12:45;18.90;99.90
3846;DHT22;1938;50.812;7.738;2023-05-07T07:15:11;19.00;99.90
3846;DHT22;1938;50.812;7.738;2023-05-07T07:17:38;18.70;99.90
3846;DHT22;1938;50.812;7.738;2023-05-07T07:20:04;18.40;99.90
3846;DHT22;1938;50.812;7.738;2023-05-07T07:22:29;18.10;99.90
3846;DHT22;1938;50.812;7.738;2023-05-07T07:24:55;18.10;99.90
3846;DHT22;1938;50.812;7.738;2023-05-07T07:27:20;18.30;99.90
3846;DHT22;1938;50.812;7.738;2023-05-07T07:29:47;18.00;99.90
3846;DHT22;1938;50.812;7.738;2023-05-07T07:32:12;18.00;99.90
3846;DHT22;1938;50.812;7.738;2023-05-07T07:34:38;18.20;99.90
3846;DHT22;1938;50.812;7.738;2023-05-07T07:37:04;18.10;99.90
3846;DHT22;1938;50.812;7.738;2023-05-07T07:39:32;18.60;99.90
3846;DHT22;1938;50.812;7.738;2023-05-07T07:41:58;19.20;99.90
3846;DHT22;1938;50.812;7.738;2023-05-07T07:44:23;19.50;99.90
3846;DHT22;1938;50.812;7.738;2023-05-07T07:46:50;19.60;70.60
3846;DHT22;1938;50.812;7.738;2023-05-07T07:49:16;19.70;87.20
3846;DHT22;1938;50.812;7.738;2023-05-07T07:51:41;19.90;54.70
3846;DHT22;1938;50.812;7.738;2023-05-07T07:54:07;20.50;51.50
3846;DHT22;1938;50.812;7.738;2023-05-07T07:56:33;21.20;3.10
3846;DHT22;1938;50.812;7.738;2023-05-07T07:59:02;20.80;1.00
3846;DHT22;1938;50.812;7.738;2023-05-07T08:01:29;21.00;1.00
3846;DHT22;1938;50.812;7.738;2023-05-07T08:03:55;21.50;1.00
3846;DHT22;1938;50.812;7.738;2023-05-07T08:06:21;21.90;1.00
3846;DHT22;1938;50.812;7.738;2023-05-07T08:08:46;22.00;1.00
3846;DHT22;1938;50.812;7.738;2023-05-07T08:11:12;21.80;1.00
3846;DHT22;1938;50.812;7.738;2023-05-07T08:13:38;21.50;1.00
3846;DHT22;1938;50.812;7.738;2023-05-07T08:16:04;21.20;1.00
3846;DHT22;1938;50.812;7.738;2023-05-07T08:18:30;21.10;1.00
3846;DHT22;1938;50.812;7.738;2023-05-07T08:20:55;21.70;1.00
3846;DHT22;1938;50.812;7.738;2023-05-07T08:23:21;21.80;1.00
3846;DHT22;1938;50.812;7.738;2023-05-07T08:25:48;22.00;1.00
3846;DHT22;1938;50.812;7.738;2023-05-07T08:28:14;23.00;1.00
3846;DHT22;1938;50.812;7.738;2023-05-07T08:30:41;23.40;1.00
3846;DHT22;1938;50.812;7.738;2023-05-07T08:33:08;24.60;1.00
3846;DHT22;1938;50.812;7.738;2023-05-07T08:35:34;24.60;1.00
3846;DHT22;1938;50.812;7.738;2023-05-07T08:37:59;24.50;1.00
3846;DHT22;1938;50.812;7.738;2023-05-07T08:40:26;25.00;1.00
3846;DHT22;1938;50.812;7.738;2023-05-07T08:42:53;25.90;1.00
3846;DHT22;1938;50.812;7.738;2023-05-07T08:45:19;26.80;1.00
3846;DHT22;1938;50.812;7.738;2023-05-07T08:47:48;27.80;1.00
3846;DHT22;1938;50.812;7.738;2023-05-07T08:50:15;29.70;1.00
3846;DHT22;1938;50.812;7.738;2023-05-07T08:52:41;28.90;1.00
3846;DHT22;1938;50.812;7.738;2023-05-07T08:55:08;29.00;1.00
3846;DHT22;1938;50.812;7.738;2023-05-07T08:57:33;29.00;1.00
3846;DHT22;1938;50.812;7.738;2023-05-07T08:59:59;28.40;1.00
3846;DHT22;1938;50.812;7.738;2023-05-07T09:02:25;28.50;1.00
3846;DHT22;1938;50.812;7.738;2023-05-07T09:04:50;29.30;1.00
3846;DHT22;1938;50.812;7.738;2023-05-07T09:07:16;29.00;1.00
3846;DHT22;1938;50.812;7.738;2023-05-07T09:09:44;27.80;1.00
3846;DHT22;1938;50.812;7.738;2023-05-07T09:12:09;27.80;1.00
3846;DHT22;1938;50.812;7.738;2023-05-07T09:14:35;28.20;1.00
3846;DHT22;1938;50.812;7.738;2023-05-07T09:17:01;29.60;1.00
3846;DHT22;1938;50.812;7.738;2023-05-07T09:19:27;31.10;1.00
3846;DHT22;1938;50.812;7.738;2023-05-07T09:22:03;32.00;1.00
3846;DHT22;1938;50.812;7.738;2023-05-07T09:24:29;31.70;1.00
3846;DHT22;1938;50.812;7.738;2023-05-07T09:26:59;31.90;1.00
3846;DHT22;1938;50.812;7.738;2023-05-07T09:29:26;31.90;1.00
3846;DHT22;1938;50.812;7.738;2023-05-07T09:31:54;31.30;1.00
3846;DHT22;1938;50.812;7.738;2023-05-07T09:34:20;30.30;1.00
3846;DHT22;1938;50.812;7.738;2023-05-07T09:36:46;28.90;1.00
3846;DHT22;1938;50.812;7.738;2023-05-07T09:39:11;27.90;1.00
3846;DHT22;1938;50.812;7.738;2023-05-07T09:41:45;26.40;1.00
3846;DHT22;1938;50.812;7.738;2023-05-07T09:44:11;25.10;1.00
3846;DHT22;1938;50.812;7.738;2023-05-07T09:46:38;25.20;1.00
3846;DHT22;1938;50.812;7.738;2023-05-07T09:49:06;25.40;1.00
3846;DHT22;1938;50.812;7.738;2023-05-07T09:51:41;25.70;1.00
3846;DHT22;1938;50.812;7.738;2023-05-07T09:54:08;25.00;1.00
3846;DHT22;1938;50.812;7.738;2023-05-07T09:56:35;24.40;1.00
3846;DHT22;1938;50.812;7.738;2023-05-07T09:59:03;24.80;1.00
3846;DHT22;1938;50.812;7.738;2023-05-07T10:01:31;25.20;1.00
3846;DHT22;1938;50.812;7.738;2023-05-07T10:03:57;25.50;1.00
3846;DHT22;1938;50.812;7.738;2023-05-07T10:06:25;25.30;1.00
3846;DHT22;1938;50.812;7.738;2023-05-07T10:08:51;25.30;1.00
3846;DHT22;1938;50.812;7.738;2023-05-07T10:11:17;25.50;1.00
3846;DHT22;1938;50.812;7.738;2023-05-07T10:13:43;25.70;1.00
3846;DHT22;1938;50.812;7.738;2023-05-07T10:16:09;25.30;1.00
3846;DHT22;1938;50.812;7.738;2023-05-07T10:18:37;25.10;1.00
3846;DHT22;1938;50.812;7.738;2023-05-07T10:21:36;24.90;1.00
3846;DHT22;1938;50.812;7.738;2023-05-07T10:24:08;24.50;1.00
3846;DHT22;1938;50.812;7.738;2023-05-07T10:26:40;24.70;1.00
3846;DHT22;1938;50.812;7.738;2023-05-07T10:29:15;25.00;1.00
3846;DHT22;1938;50.812;7.738;2023-05-07T10:34:56;25.00;1.00
3846;DHT22;1938;50.812;7.738;2023-05-07T10:37:24;24.70;1.00
3846;DHT22;1938;50.812;7.738;2023-05-07T10:39:50;24.50;1.00
3846;DHT22;1938;50.812;7.738;2023-05-07T10:42:17;24.10;1.00
3846;DHT22;1938;50.812;7.738;2023-05-07T10:44:42;23.80;1.00
3846;DHT22;1938;50.812;7.738;2023-05-07T10:47:10;23.50;1.00
3846;DHT22;1938;50.812;7.738;2023-05-07T10:50:20;23.00;1.00
3846;DHT22;1938;50.812;7.738;2023-05-07T10:55:45;21.40;1.00
3846;DHT22;1938;50.812;7.738;2023-05-07T10:58:29;21.20;1.00
3846;DHT22;1938;50.812;7.738;2023-05-07T11:01:02;21.00;1.00
3846;DHT22;1938;50.812;7.738;2023-05-07T11:03:28;21.10;1.00
3846;DHT22;1938;50.812;7.738;2023-05-07T11:06:14;20.90;1.00
3846;DHT22;1938;50.812;7.738;2023-05-07T11:08:55;20.90;1.00
3846;DHT22;1938;50.812;7.738;2023-05-07T11:11:49;20.80;1.00
3846;DHT22;1938;50.812;7.738;2023-05-07T11:14:43;20.50;1.00
3846;DHT22;1938;50.812;7.738;2023-05-07T11:17:10;20.40;1.00
3846;DHT22;1938;50.812;7.738;2023-05-07T11:19:53;20.40;1.00
3846;DHT22;1938;50.812;7.738;2023-05-07T11:25:02;20.30;1.00
3846;DHT22;1938;50.812;7.738;2023-05-07T11:27:29;20.20;1.00
3846;DHT22;1938;50.812;7.738;2023-05-07T11:29:55;20.20;1.00
3846;DHT22;1938;50.812;7.738;2023-05-07T11:32:28;20.20;1.00
3846;DHT22;1938;50.812;7.738;2023-05-07T11:34:55;20.10;1.00
3846;DHT22;1938;50.812;7.738;2023-05-07T11:37:22;20.10;1.00
3846;DHT22;1938;50.812;7.738;2023-05-07T11:39:48;20.10;1.00
3846;DHT22;1938;50.812;7.738;2023-05-07T11:42:33;20.30;1.00
3846;DHT22;1938;50.812;7.738;2023-05-07T11:44:59;20.50;1.00
3846;DHT22;1938;50.812;7.738;2023-05-07T11:47:25;20.70;1.00
3846;DHT22;1938;50.812;7.738;2023-05-07T11:49:53;20.70;1.00
3846;DHT22;1938;50.812;7.738;2023-05-07T11:52:19;20.80;1.00
3846;DHT22;1938;50.812;7.738;2023-05-07T11:54:50;20.80;1.00
3846;DHT22;1938;50.812;7.738;2023-05-07T11:57:15;20.80;1.00
3846;DHT22;1938;50.812;7.738;2023-05-07T11:59:41;20.70;1.00
3846;DHT22;1938;50.812;7.738;2023-05-07T12:02:07;20.70;1.00
3846;DHT22;1938;50.812;7.738;2023-05-07T12:04:33;20.90;1.00
3846;DHT22;1938;50.812;7.738;2023-05-07T12:06:59;20.60;1.00
3846;DHT22;1938;50.812;7.738;2023-05-07T12:09:24;20.40;1.00
3846;DHT22;1938;50.812;7.738;2023-05-07T12:11:51;20.00;1.00
3846;DHT22;1938;50.812;7.738;2023-05-07T12:14:17;19.90;1.00
3846;DHT22;1938;50.812;7.738;2023-05-07T12:16:43;19.80;1.00
3846;DHT22;1938;50.812;7.738;2023-05-07T12:19:11;19.70;1.00
3846;DHT22;1938;50.812;7.738;2023-05-07T12:21:38;19.70;1.00
3846;DHT22;1938;50.812;7.738;2023-05-07T12:24:05;19.60;1.00
3846;DHT22;1938;50.812;7.738;2023-05-07T12:26:30;19.50;1.00
3846;DHT22;1938;50.812;7.738;2023-05-07T12:28:57;19.40;1.00
3846;DHT22;1938;50.812;7.738;2023-05-07T12:31:25;19.30;1.00
3846;DHT22;1938;50.812;7.738;2023-05-07T12:33:51;19.30;1.00
3846;DHT22;1938;50.812;7.738;2023-05-07T12:36:16;19.20;1.00
3846;DHT22;1938;50.812;7.738;2023-05-07T12:38:42;19.20;1.00
3846;DHT22;1938;50.812;7.738;2023-05-07T12:41:10;19.20;1.00
3846;DHT22;1938;50.812;7.738;2023-05-07T12:43:36;19.20;1.00
3846;DHT22;1938;50.812;7.738;2023-05-07T12:46:04;19.20;1.00
3846;DHT22;1938;50.812;7.738;2023-05-07T12:48:30;19.20;1.00
3846;DHT22;1938;50.812;7.738;2023-05-07T12:50:57;19.30;1.00
3846;DHT22;1938;50.812;7.738;2023-05-07T12:53:25;19.40;1.00
3846;DHT22;1938;50.812;7.738;2023-05-07T12:55:54;19.40;1.00
3846;DHT22;1938;50.812;7.738;2023-05-07T13:00:53;19.70;1.00
3846;DHT22;1938;50.812;7.738;2023-05-07T13:03:24;19.70;1.00
3846;DHT22;1938;50.812;7.738;2023-05-07T13:05:51;19.80;1.00
3846;DHT22;1938;50.812;7.738;2023-05-07T13:08:26;19.80;1.00
3846;DHT22;1938;50.812;7.738;2023-05-07T13:10:52;19.80;1.00
3846;DHT22;1938;50.812;7.738;2023-05-07T13:13:19;20.00;1.00
3846;DHT22;1938;50.812;7.738;2023-05-07T13:15:47;20.00;1.00
3846;DHT22;1938;50.812;7.738;2023-05-07T13:18:12;19.90;1.00
3846;DHT22;1938;50.812;7.738;2023-05-07T13:20:38;19.90;1.00
3846;DHT22;1938;50.812;7.738;2023-05-07T13:23:03;20.00;1.00
3846;DHT22;1938;50.812;7.738;2023-05-07T13:25:30;19.90;1.00
3846;DHT22;1938;50.812;7.738;2023-05-07T13:27:57;19.90;1.00
3846;DHT22;1938;50.812;7.738;2023-05-07T13:30:23;19.90;1.00
3846;DHT22;1938;50.812;7.738;2023-05-07T13:32:48;19.80;1.00
3846;DHT22;1938;50.812;7.738;2023-05-07T13:35:16;19.70;1.00
3846;DHT22;1938;50.812;7.738;2023-05-07T13:37:41;19.70;1.00
3846;DHT22;1938;50.812;7.738;2023-05-07T13:40:07;19.80;1.00
3846;DHT22;1938;50.812;7.738;2023-05-07T13:42:33;19.90;1.00
3846;DHT22;1938;50.812;7.738;2023-05-07T13:44:58;20.00;6.00
3846;DHT22;1938;50.812;7.738;2023-05-07T13:47:24;20.10;1.00
3846;DHT22;1938;50.812;7.738;2023-05-07T13:49:50;20.10;5.60
3846;DHT22;1938;50.812;7.738;2023-05-07T13:52:16;20.10;1.00
3846;DHT22;1938;50.812;7.738;2023-05-07T13:54:42;20.40;10.90
3846;DHT22;1938;50.812;7.738;2023-05-07T13:57:08;20.70;1.00
3846;DHT22;1938;50.812;7.738;2023-05-07T13:59:33;20.90;1.00
3846;DHT22;1938;50.812;7.738;2023-05-07T14:01:59;20.70;1.00
3846;DHT22;1938;50.812;7.738;2023-05-07T14:04:25;20.60;1.00
3846;DHT22;1938;50.812;7.738;2023-05-07T14:06:51;20.40;1.00
3846;DHT22;1938;50.812;7.738;2023-05-07T14:09:16;20.30;1.00
3846;DHT22;1938;50.812;7.738;2023-05-07T14:11:42;20.40;1.00
3846;DHT22;1938;50.812;7.738;2023-05-07T14:14:08;20.40;1.00
3846;DHT22;1938;50.812;7.738;2023-05-07T14:16:36;20.50;1.00
3846;DHT22;1938;50.812;7.738;2023-05-07T14:19:02;20.60;1.00
3846;DHT22;1938;50.812;7.738;2023-05-07T14:21:27;20.80;1.00
3846;DHT22;1938;50.812;7.738;2023-05-07T14:23:53;20.70;1.00
3846;DHT22;1938;50.812;7.738;2023-05-07T14:26:19;20.80;1.00
3846;DHT22;1938;50.812;7.738;2023-05-07T14:28:45;20.90;1.00
3846;DHT22;1938;50.812;7.738;2023-05-07T14:31:12;21.10;1.00
3846;DHT22;1938;50.812;7.738;2023-05-07T14:33:38;21.30;1.00
3846;DHT22;1938;50.812;7.738;2023-05-07T14:36:03;21.50;1.00
3846;DHT22;1938;50.812;7.738;2023-05-07T14:38:29;21.40;1.00
3846;DHT22;1938;50.812;7.738;2023-05-07T14:40:55;21.50;1.00
3846;DHT22;1938;50.812;7.738;2023-05-07T14:43:22;21.60;1.00
3846;DHT22;1938;50.812;7.738;2023-05-07T14:45:48;21.30;1.00
3846;DHT22;1938;50.812;7.738;2023-05-07T14:48:13;21.30;1.00
3846;DHT22;1938;50.812;7.738;2023-05-07T14:50:41;21.20;1.00
3846;DHT22;1938;50.812;7.738;2023-05-07T14:53:07;21.00;1.00
3846;DHT22;1938;50.812;7.738;2023-05-07T14:55:34;21.10;1.00
3846;DHT22;1938;50.812;7.738;2023-05-07T14:58:00;20.80;1.00
3846;DHT22;1938;50.812;7.738;2023-05-07T15:00:25;20.60;1.00
3846;DHT22;1938;50.812;7.738;2023-05-07T15:02:51;20.50;1.00
3846;DHT22;1938;50.812;7.738;2023-05-07T15:05:16;20.40;1.00
3846;DHT22;1938;50.812;7.738;2023-05-07T15:07:43;20.30;1.00
3846;DHT22;1938;50.812;7.738;2023-05-07T15:10:09;20.10;1.00
3846;DHT22;1938;50.812;7.738;2023-05-07T15:12:36;20.00;1.00
3846;DHT22;1938;50.812;7.738;2023-05-07T15:15:01;19.80;1.00
3846;DHT22;1938;50.812;7.738;2023-05-07T15:17:27;19.70;1.00
3846;DHT22;1938;50.812;7.738;2023-05-07T15:19:53;19.50;1.00
3846;DHT22;1938;50.812;7.738;2023-05-07T15:22:18;19.20;1.00
3846;DHT22;1938;50.812;7.738;2023-05-07T15:24:46;19.10;10.50
3846;DHT22;1938;50.812;7.738;2023-05-07T15:27:12;19.00;42.10
3846;DHT22;1938;50.812;7.738;2023-05-07T15:29:37;18.90;86.40
3846;DHT22;1938;50.812;7.738;2023-05-07T15:32:04;18.90;99.90
3846;DHT22;1938;50.812;7.738;2023-05-07T15:34:29;18.80;99.90
3846;DHT22;1938;50.812;7.738;2023-05-07T15:36:56;18.60;99.90
3846;DHT22;1938;50.812;7.738;2023-05-07T15:39:22;18.50;99.90
3846;DHT22;1938;50.812;7.738;2023-05-07T15:41:48;18.30;99.90
3846;DHT22;1938;50.812;7.738;2023-05-07T15:44:13;18.30;99.90
3846;DHT22;1938;50.812;7.738;2023-05-07T15:46:39;18.10;1.00
3846;DHT22;1938;50.812;7.738;2023-05-07T15:49:04;18.10;1.00
3846;DHT22;1938;50.812;7.738;2023-05-07T15:51:30;17.90;1.00
3846;DHT22;1938;50.812;7.738;2023-05-07T15:53:56;17.80;72.90
3846;DHT22;1938;50.812;7.738;2023-05-07T15:56:22;17.80;47.90
3846;DHT22;1938;50.812;7.738;2023-05-07T15:58:48;17.60;99.90
3846;DHT22;1938;50.812;7.738;2023-05-07T16:01:14;17.60;99.90
3846;DHT22;1938;50.812;7.738;2023-05-07T16:03:40;17.50;99.90
3846;DHT22;1938;50.812;7.738;2023-05-07T16:06:06;17.50;1.00
3846;DHT22;1938;50.812;7.738;2023-05-07T16:08:31;17.40;1.00
3846;DHT22;1938;50.812;7.738;2023-05-07T16:10:58;17.30;23.00
3846;DHT22;1938;50.812;7.738;2023-05-07T16:13:23;17.20;99.90
3846;DHT22;1938;50.812;7.738;2023-05-07T16:15:49;17.00;99.90
3846;DHT22;1938;50.812;7.738;2023-05-07T16:18:19;16.90;99.90
3846;DHT22;1938;50.812;7.738;2023-05-07T16:20:45;16.70;1.00
3846;DHT22;1938;50.812;7.738;2023-05-07T16:23:10;16.60;99.90